Time;durP1;ratioP1;P1;durP2;ratioP2;P2;SDS_P1;SDS_P2;PMS_P1;PMS_P2;Temp;Humidity;BMP_temperature;BMP_pressure;BME280_temperature;BME280_humidity;BME280_pressure;Samples;Min_cycle;Max_cycle;Signal;HPM_P1;HPM_P2
2023/04/30 00:08:42;;;;;;;6.43;2.85;;;9.10;1.00;;;;;;20717684;28;20496;-42
2023/04/30 00:18:43;;;;;;;5.47;3.58;;;8.90;1.00;;;;;;20700319;28;20398;-42
2023/04/30 00:28:44;;;;;;;9.07;3.45;;;8.80;1.00;;;;;;20714743;28;20029;-42
2023/04/30 00:38:45;;;;;;;6.97;3.70;;;8.70;1.00;;;;;;20730514;28;20392;-42
2023/04/30 00:48:46;;;;;;;6.63;3.10;;;8.50;1.00;;;;;;20721343;28;20041;-41
2023/04/30 00:58:50;;;;;;;9.50;3.50;;;8.40;1.00;;;;;;20739092;28;21680;-42
2023/04/30 01:08:52;;;;;;;7.57;4.13;;;8.30;1.00;;;;;;20737237;28;20056;-42
2023/04/30 01:19:19;;;;;;;15.93;4.03;;;8.30;1.00;;;;;;20735506;28;20417;-42
2023/04/30 01:29:23;;;;;;;9.48;3.45;;;8.20;1.00;;;;;;20708564;28;20498;-42
2023/04/30 01:39:48;;;;;;;8.88;3.53;;;8.10;1.00;;;;;;20735702;28;20037;-42
2023/04/30 01:50:13;;;;;;;7.40;3.58;;;8.00;1.00;;;;;;20718543;28;20527;-42
2023/04/30 02:00:16;;;;;;;9.07;4.07;;;8.00;1.00;;;;;;20730182;28;20048;-42
2023/04/30 02:10:21;;;;;;;6.97;3.30;;;7.90;1.00;;;;;;20716415;28;20044;-42
2023/04/30 02:20:22;;;;;;;8.95;4.00;;;7.80;2.00;;;;;;20719044;28;20079;-42
2023/04/30 02:40:59;;;;;;;8.63;4.30;;;7.90;14.90;;;;;;21806018;23;20202;-43
2023/04/30 02:51:00;;;;;;;10.65;4.25;;;7.80;11.50;;;;;;20546842;28;20540;-43
2023/04/30 03:01:01;;;;;;;6.97;2.63;;;7.80;12.00;;;;;;20521466;28;20498;-43
2023/04/30 03:11:02;;;;;;;5.78;2.55;;;7.70;11.00;;;;;;20529507;28;20065;-43
2023/04/30 03:21:04;;;;;;;8.18;3.78;;;7.70;11.80;;;;;;20549524;28;20038;-43
2023/04/30 03:31:05;;;;;;;7.78;3.53;;;7.70;12.00;;;;;;20555906;28;20038;-44
2023/04/30 03:41:06;;;;;;;3.83;2.38;;;7.60;14.70;;;;;;20558610;28;20445;-43
2023/04/30 03:51:08;;;;;;;5.68;2.97;;;7.70;13.20;;;;;;20557435;28;20046;-43
2023/04/30 04:01:09;;;;;;;5.95;2.80;;;7.60;8.30;;;;;;20558004;28;20478;-43
2023/04/30 04:11:11;;;;;;;6.03;3.13;;;7.40;6.40;;;;;;20567038;28;20035;-43
2023/04/30 04:21:12;;;;;;;12.00;3.60;;;7.30;11.80;;;;;;20570857;28;20541;-43
2023/04/30 04:31:13;;;;;;;9.98;3.50;;;7.20;13.50;;;;;;20570715;28;20031;-43
2023/04/30 04:41:14;;;;;;;7.53;2.85;;;7.30;15.10;;;;;;20570430;28;20379;-43
2023/04/30 04:51:15;;;;;;;7.50;3.83;;;7.10;17.70;;;;;;20570194;28;20669;-43
2023/04/30 05:01:16;;;;;;;7.35;2.80;;;7.20;28.90;;;;;;20568782;28;20486;-44
2023/04/30 05:11:17;;;;;;;5.68;2.72;;;7.30;39.10;;;;;;20573256;28;20049;-43
2023/04/30 05:21:19;;;;;;;5.47;2.70;;;7.50;38.10;;;;;;20560946;28;20264;-43
2023/04/30 05:31:20;;;;;;;8.55;4.05;;;7.80;33.30;;;;;;20558643;28;20397;-43
2023/04/30 05:41:21;;;;;;;4.95;2.20;;;8.00;25.80;;;;;;20558159;28;20552;-43
2023/04/30 05:51:22;;;;;;;5.70;2.97;;;8.50;15.70;;;;;;20563266;28;20050;-44
2023/04/30 06:01:24;;;;;;;7.65;3.05;;;9.10;6.10;;;;;;20559591;28;20050;-43
2023/04/30 06:11:26;;;;;;;6.70;2.60;;;9.90;1.00;;;;;;20553314;28;20410;-43
2023/04/30 06:21:27;;;;;;;5.55;2.50;;;9.80;1.00;;;;;;20554115;28;20047;-43
2023/04/30 06:31:28;;;;;;;5.50;1.88;;;9.90;1.00;;;;;;20557642;28;20042;-43
2023/04/30 06:41:29;;;;;;;4.25;2.30;;;10.40;1.00;;;;;;20548117;28;20148;-43
2023/04/30 06:51:30;;;;;;;6.35;2.72;;;10.80;1.00;;;;;;20547645;28;20042;-43
2023/04/30 07:01:31;;;;;;;4.85;2.30;;;10.90;1.00;;;;;;20550327;28;20850;-44
2023/04/30 07:11:32;;;;;;;4.30;2.40;;;11.10;1.00;;;;;;20547809;28;20038;-43
2023/04/30 07:21:33;;;;;;;3.60;1.90;;;11.10;1.00;;;;;;20547314;28;20384;-43
2023/04/30 07:31:34;;;;;;;6.22;2.28;;;11.30;1.00;;;;;;20525596;28;20038;-43
2023/04/30 07:41:35;;;;;;;4.25;2.10;;;11.20;1.00;;;;;;20546892;28;20468;-43
2023/04/30 07:51:36;;;;;;;5.07;2.03;;;11.60;1.00;;;;;;20559016;28;20045;-43
2023/04/30 08:01:37;;;;;;;5.28;2.15;;;11.70;1.00;;;;;;20562912;28;20458;-43
2023/04/30 08:11:38;;;;;;;4.13;1.80;;;11.90;1.00;;;;;;20555742;28;20049;-43
2023/04/30 08:21:40;;;;;;;2.92;1.38;;;12.20;1.00;;;;;;20561397;28;20046;-43
2023/04/30 08:31:41;;;;;;;3.85;1.50;;;12.60;1.00;;;;;;20562750;28;20069;-43
2023/04/30 08:41:46;;;;;;;3.80;2.00;;;12.70;1.00;;;;;;20556452;28;20057;-43
2023/04/30 08:51:48;;;;;;;4.45;2.00;;;13.10;1.00;;;;;;20574219;28;20035;-43
2023/04/30 09:01:49;;;;;;;3.17;1.60;;;13.50;1.00;;;;;;20576748;28;20042;-42
2023/04/30 09:11:50;;;;;;;10.35;1.58;;;14.00;1.00;;;;;;20581028;28;20069;-42
2023/04/30 09:21:52;;;;;;;4.63;1.50;;;14.40;1.00;;;;;;20579521;28;20049;-41
2023/04/30 09:32:07;;;;;;;2.72;1.58;;;14.80;1.00;;;;;;20569466;28;20045;-42
2023/04/30 09:42:09;;;;;;;1.92;1.17;;;15.10;1.00;;;;;;20563700;28;20077;-42
2023/04/30 09:52:11;;;;;;;2.53;1.05;;;15.40;1.00;;;;;;20576199;28;20202;-42
2023/04/30 10:02:15;;;;;;;3.63;1.40;;;15.60;1.00;;;;;;20582044;28;20049;-42
2023/04/30 10:12:22;;;;;;;3.80;1.90;;;16.10;1.00;;;;;;20569499;28;20034;-42
2023/04/30 10:22:23;;;;;;;3.63;1.57;;;16.50;1.00;;;;;;20574039;28;20041;-42
2023/04/30 10:32:34;;;;;;;4.20;1.98;;;16.50;1.00;;;;;;20579247;28;20047;-42
2023/04/30 10:42:36;;;;;;;2.50;1.33;;;16.90;1.00;;;;;;20579320;28;21396;-42
2023/04/30 10:52:37;;;;;;;3.42;1.33;;;17.00;1.00;;;;;;20575688;28;20510;-42
2023/04/30 11:02:43;;;;;;;3.58;1.73;;;17.40;1.00;;;;;;20569620;28;20045;-42
2023/04/30 11:12:52;;;;;;;2.35;1.10;;;18.00;1.00;;;;;;20574493;28;20038;-42
2023/04/30 11:23:13;;;;;;;5.63;1.95;;;18.10;1.00;;;;;;20576481;28;20043;-42
2023/04/30 11:33:14;;;;;;;4.35;1.50;;;18.30;1.00;;;;;;20564263;28;20495;-42
2023/04/30 11:43:29;;;;;;;2.60;1.20;;;18.80;1.00;;;;;;20564360;28;20085;-42
2023/04/30 11:53:31;;;;;;;3.53;1.20;;;19.10;1.00;;;;;;20554390;28;20043;-42
2023/04/30 12:03:38;;;;;;;5.35;1.25;;;19.20;1.00;;;;;;20514510;28;20770;-42
2023/04/30 12:13:49;;;;;;;3.45;1.17;;;19.30;1.00;;;;;;20456556;28;20873;-40
2023/04/30 12:23:51;;;;;;;1.83;0.88;;;19.50;1.00;;;;;;20472998;28;20399;-40
2023/04/30 12:33:55;;;;;;;1.30;0.70;;;19.60;1.00;;;;;;20467417;28;20043;-40
2023/04/30 12:44:16;;;;;;;2.20;0.80;;;20.00;1.00;;;;;;20444233;28;20434;-40
2023/04/30 12:54:25;;;;;;;1.55;0.85;;;20.20;1.00;;;;;;20466221;28;20158;-40
2023/04/30 13:04:27;;;;;;;1.50;0.60;;;19.60;1.00;;;;;;20487063;28;20549;-40
2023/04/30 13:14:30;;;;;;;4.25;1.08;;;19.00;1.00;;;;;;20492371;28;20046;-40
2023/04/30 13:24:31;;;;;;;2.28;0.60;;;20.20;1.00;;;;;;20516320;28;20043;-41
2023/04/30 13:34:32;;;;;;;1.45;0.50;;;20.00;1.00;;;;;;20498050;28;20062;-41
2023/04/30 13:44:34;;;;;;;2.00;0.95;;;19.40;1.00;;;;;;20452462;28;20049;-41
2023/04/30 13:54:37;;;;;;;2.45;0.82;;;19.20;1.00;;;;;;20540490;28;20761;-41
2023/04/30 14:04:38;;;;;;;1.15;0.52;;;19.50;1.00;;;;;;20550869;28;20043;-41
2023/04/30 14:14:39;;;;;;;2.95;0.70;;;19.60;1.00;;;;;;20557891;28;20619;-41
2023/04/30 14:24:40;;;;;;;2.90;0.60;;;19.10;1.00;;;;;;20567046;28;20031;-41
2023/04/30 14:34:41;;;;;;;1.00;0.45;;;19.00;1.00;;;;;;20579459;28;20057;-41
2023/04/30 14:44:42;;;;;;;3.20;0.57;;;18.60;1.00;;;;;;20582049;28;20046;-41
2023/04/30 14:54:44;;;;;;;1.15;0.50;;;18.60;1.00;;;;;;20575554;28;20031;-41
2023/04/30 15:04:46;;;;;;;1.30;0.60;;;19.10;1.00;;;;;;20571577;28;20049;-41
2023/04/30 15:14:47;;;;;;;0.73;0.38;;;19.30;1.00;;;;;;20576814;28;20037;-41
2023/04/30 15:24:48;;;;;;;1.10;0.52;;;18.90;1.00;;;;;;20485928;28;20525;-41
2023/04/30 15:34:50;;;;;;;1.52;0.60;;;18.50;1.00;;;;;;20465158;28;20439;-41
2023/04/30 15:44:51;;;;;;;1.33;0.63;;;18.70;1.00;;;;;;20454441;28;20047;-41
2023/04/30 15:54:52;;;;;;;1.60;0.43;;;18.70;1.00;;;;;;20463009;28;20534;-41
2023/04/30 16:04:53;;;;;;;1.90;0.82;;;18.80;1.00;;;;;;20465303;28;20989;-41
2023/04/30 16:14:54;;;;;;;1.48;0.52;;;18.70;1.00;;;;;;20483412;28;20102;-40
2023/04/30 16:24:55;;;;;;;1.38;0.68;;;18.40;1.00;;;;;;20471182;28;20047;-41
2023/04/30 16:34:56;;;;;;;1.58;0.50;;;18.30;1.00;;;;;;20486325;28;20507;-40
2023/04/30 16:44:57;;;;;;;2.47;0.40;;;18.40;1.00;;;;;;20524740;28;20043;-40
2023/04/30 16:54:58;;;;;;;0.85;0.30;;;18.10;1.00;;;;;;20485352;28;20039;-41
2023/04/30 17:04:59;;;;;;;1.65;0.60;;;18.00;1.00;;;;;;20468106;28;20039;-40
2023/04/30 17:15:00;;;;;;;1.88;1.13;;;17.90;1.00;;;;;;20480558;28;20039;-41
2023/04/30 17:25:02;;;;;;;2.55;0.63;;;17.70;1.00;;;;;;20492041;28;20042;-41
2023/04/30 17:35:05;;;;;;;0.98;0.50;;;17.60;1.00;;;;;;20493012;28;20035;-41
2023/04/30 17:45:07;;;;;;;1.35;0.52;;;17.50;1.00;;;;;;20490839;28;20050;-41
2023/04/30 17:55:08;;;;;;;0.75;0.40;;;17.40;1.00;;;;;;20487578;28;20384;-41
2023/04/30 18:05:10;;;;;;;2.08;0.40;;;17.10;1.00;;;;;;20487264;28;20493;-40
2023/04/30 18:15:13;;;;;;;2.70;0.73;;;17.00;1.00;;;;;;20481238;28;20034;-40
2023/04/30 18:25:15;;;;;;;3.22;0.50;;;16.90;1.00;;;;;;20479944;28;20039;-40
2023/04/30 18:35:17;;;;;;;0.82;0.43;;;16.80;1.00;;;;;;20491068;28;20441;-40
2023/04/30 18:45:18;;;;;;;1.17;0.43;;;16.60;1.00;;;;;;20483852;28;20046;-41
2023/04/30 18:55:19;;;;;;;1.35;0.50;;;16.30;1.00;;;;;;20482303;28;20043;-40
2023/04/30 19:05:20;;;;;;;1.23;0.60;;;16.10;1.00;;;;;;20483737;28;20039;-40
2023/04/30 19:15:23;;;;;;;0.93;0.50;;;15.80;1.00;;;;;;20484258;28;20039;-40
2023/04/30 19:25:25;;;;;;;2.67;1.27;;;15.30;1.00;;;;;;20481904;28;20046;-40
2023/04/30 19:35:26;;;;;;;4.28;0.95;;;15.10;1.00;;;;;;20482806;28;20415;-40
2023/04/30 19:45:27;;;;;;;1.65;0.70;;;14.70;1.00;;;;;;20476439;28;20047;-42
2023/04/30 19:55:30;;;;;;;2.60;0.80;;;14.50;1.00;;;;;;20488041;28;20058;-42
2023/04/30 20:05:32;;;;;;;2.75;0.82;;;14.40;1.00;;;;;;20466344;28;20050;-42
2023/04/30 20:15:33;;;;;;;1.02;0.47;;;14.30;1.00;;;;;;20468767;28;20046;-42
2023/04/30 20:25:34;;;;;;;3.53;1.23;;;14.10;1.00;;;;;;20483356;28;20197;-42
2023/04/30 20:35:39;;;;;;;1.80;0.80;;;13.90;1.00;;;;;;20482509;28;20998;-42
2023/04/30 20:45:43;;;;;;;2.40;0.93;;;13.70;1.00;;;;;;20482593;28;20043;-42
2023/04/30 20:55:45;;;;;;;1.77;0.90;;;13.60;1.00;;;;;;20498913;28;20527;-42
2023/04/30 21:05:46;;;;;;;4.72;1.20;;;13.50;1.00;;;;;;20494482;28;20043;-42
2023/04/30 21:15:47;;;;;;;2.45;0.90;;;13.40;1.00;;;;;;20501861;28;20402;-42
2023/04/30 21:25:53;;;;;;;2.33;0.90;;;13.30;1.00;;;;;;20506138;28;20050;-42
2023/04/30 21:35:54;;;;;;;1.83;0.90;;;13.20;1.00;;;;;;20496959;28;21440;-42
2023/04/30 21:46:01;;;;;;;2.17;1.10;;;13.00;1.00;;;;;;20482253;28;20111;-42
2023/04/30 21:56:07;;;;;;;2.30;0.90;;;12.80;1.00;;;;;;20478257;28;20043;-42
2023/04/30 22:06:08;;;;;;;2.33;1.00;;;12.60;1.00;;;;;;20478567;28;20462;-42
2023/04/30 22:16:09;;;;;;;3.20;1.50;;;12.40;1.00;;;;;;20490984;28;20402;-42
2023/04/30 22:26:10;;;;;;;3.33;1.50;;;12.40;1.00;;;;;;20485634;28;20431;-42
2023/04/30 22:36:11;;;;;;;2.08;1.17;;;12.30;1.00;;;;;;20492184;28;20047;-42
2023/04/30 22:46:13;;;;;;;4.72;1.80;;;12.20;1.00;;;;;;20493103;28;20051;-42
2023/04/30 22:56:16;;;;;;;2.13;1.25;;;12.00;1.00;;;;;;20487689;28;20053;-42
2023/04/30 23:06:17;;;;;;;2.83;1.35;;;11.90;1.00;;;;;;20471136;28;20053;-42
2023/04/30 23:16:18;;;;;;;3.17;1.40;;;11.70;1.00;;;;;;20479721;28;20065;-42
2023/04/30 23:26:20;;;;;;;2.60;1.10;;;11.50;1.00;;;;;;20478655;28;20438;-42
2023/04/30 23:36:21;;;;;;;2.72;1.42;;;11.40;1.00;;;;;;20478465;28;20050;-42
2023/04/30 23:46:23;;;;;;;2.72;1.20;;;11.20;1.00;;;;;;20476469;28;20051;-42
2023/04/30 23:56:24;;;;;;;2.28;1.20;;;11.10;1.00;;;;;;20504926;28;20042;-42
